AEN839 EGPH-EDDH
Flight info
| Callsign | AEN839 |
|---|---|
| Flight time | 1h 25m |
| Altitude | 35000 |
| Route | TLA DCT RENEQ DCT ROCZO DCT OGFON DCT ABFAD DCT OSTOR/N0401F230 T904 RIBSO RIBSO7A |
| Aircraft | A321/M-SDE3FGHIRWY/LB1 |
Departure
| Time | 2026-04-21 16:06 |
|---|---|
| Airport | Edinburgh Airport (EGPH) |
Arrival
| Time | 2026-04-21 17:32 |
|---|---|
| Airport | Hamburg Helmut Schmidt Airport (EDDH) |
| Time | Latitude | Longitude | Altitude | Speed | Heading |
|---|---|---|---|---|---|
| 2026-04-21 15:13 | 55.94924 | -3.36434 | 117 ft | 0 kts | 148° |
| 2026-04-21 15:55 | 55.94929 | -3.36440 | 113 ft | 4 kts | 148° |
| 2026-04-21 15:55 | 55.94948 | -3.36460 | 112 ft | 3 kts | 149° |
| 2026-04-21 15:56 | 55.94963 | -3.36473 | 113 ft | 4 kts | 170° |
| 2026-04-21 15:56 | 55.94986 | -3.36469 | 114 ft | 4 kts | 221° |
| 2026-04-21 15:56 | 55.94998 | -3.36443 | 114 ft | 0 kts | 238° |
| 2026-04-21 15:58 | 55.94997 | -3.36446 | 112 ft | 1 kts | 239° |
| 2026-04-21 15:58 | 55.94985 | -3.36484 | 113 ft | 6 kts | 239° |
| 2026-04-21 15:59 | 55.94955 | -3.36574 | 115 ft | 10 kts | 239° |
| 2026-04-21 15:59 | 55.94918 | -3.36682 | 111 ft | 11 kts | 239° |
| 2026-04-21 15:59 | 55.94901 | -3.36803 | 116 ft | 10 kts | 303° |
| 2026-04-21 15:59 | 55.94921 | -3.36919 | 114 ft | 11 kts | 245° |
| 2026-04-21 16:00 | 55.94878 | -3.37040 | 115 ft | 12 kts | 239° |
| 2026-04-21 16:00 | 55.94832 | -3.37175 | 112 ft | 13 kts | 239° |
| 2026-04-21 16:00 | 55.94783 | -3.37321 | 114 ft | 14 kts | 239° |
| 2026-04-21 16:00 | 55.94730 | -3.37476 | 111 ft | 15 kts | 238° |
| 2026-04-21 16:01 | 55.94674 | -3.37641 | 115 ft | 16 kts | 239° |
| 2026-04-21 16:01 | 55.94615 | -3.37814 | 116 ft | 17 kts | 239° |
| 2026-04-21 16:01 | 55.94553 | -3.37996 | 114 ft | 18 kts | 238° |
| 2026-04-21 16:01 | 55.94489 | -3.38187 | 113 ft | 18 kts | 239° |
| 2026-04-21 16:02 | 55.94421 | -3.38385 | 113 ft | 19 kts | 238° |
| 2026-04-21 16:02 | 55.94352 | -3.38589 | 114 ft | 19 kts | 238° |
| 2026-04-21 16:02 | 55.94296 | -3.38755 | 113 ft | 12 kts | 238° |
| 2026-04-21 16:02 | 55.94290 | -3.38859 | 114 ft | 8 kts | 300° |
| 2026-04-21 16:03 | 55.94321 | -3.38903 | 116 ft | 0 kts | 328° |
| 2026-04-21 16:03 | 55.94322 | -3.38904 | 116 ft | 0 kts | 328° |
| 2026-04-21 16:04 | 55.94325 | -3.38907 | 116 ft | 1 kts | 328° |
| 2026-04-21 16:04 | 55.94346 | -3.38931 | 112 ft | 6 kts | 328° |
| 2026-04-21 16:04 | 55.94394 | -3.38977 | 114 ft | 9 kts | 343° |
| 2026-04-21 16:04 | 55.94436 | -3.38911 | 114 ft | 8 kts | 58° |
| 2026-04-21 16:05 | 55.94461 | -3.38839 | 114 ft | 0 kts | 59° |
| 2026-04-21 16:05 | 55.94461 | -3.38837 | 114 ft | 1 kts | 59° |
| 2026-04-21 16:06 | 55.94509 | -3.38695 | 112 ft | 47 kts | 58° |
| 2026-04-21 16:06 | 55.94826 | -3.37765 | 112 ft | 125 kts | 58° |
| 2026-04-21 16:06 | 55.95378 | -3.36141 | 331 ft | 168 kts | 60° |
| 2026-04-21 16:06 | 55.95977 | -3.34374 | 1453 ft | 165 kts | 55° |
| 2026-04-21 16:07 | 55.96831 | -3.32998 | 2267 ft | 172 kts | 40° |
| 2026-04-21 16:07 | 55.97815 | -3.31529 | 2445 ft | 196 kts | 45° |
| 2026-04-21 16:07 | 55.98878 | -3.29802 | 2637 ft | 218 kts | 45° |
| 2026-04-21 16:07 | 56.00051 | -3.27870 | 2958 ft | 238 kts | 45° |
| 2026-04-21 16:08 | 56.02538 | -3.23807 | 4352 ft | 246 kts | 45° |
| 2026-04-21 16:08 | 56.03814 | -3.21737 | 5044 ft | 250 kts | 45° |
| 2026-04-21 16:08 | 56.04959 | -3.19421 | 5708 ft | 250 kts | 62° |
| 2026-04-21 16:09 | 56.05590 | -3.16529 | 5965 ft | 250 kts | 81° |
| 2026-04-21 16:09 | 56.05572 | -3.13441 | 6007 ft | 250 kts | 101° |
| 2026-04-21 16:09 | 56.04989 | -3.10511 | 6009 ft | 252 kts | 117° |
| 2026-04-21 16:09 | 56.03912 | -3.08035 | 6008 ft | 255 kts | 135° |
| 2026-04-21 16:10 | 56.02510 | -3.06071 | 6012 ft | 257 kts | 140° |
| 2026-04-21 16:10 | 56.01088 | -3.04136 | 6006 ft | 257 kts | 139° |
| 2026-04-21 16:10 | 55.99670 | -3.02195 | 6011 ft | 257 kts | 140° |
| 2026-04-21 16:10 | 55.98185 | -3.00408 | 6007 ft | 259 kts | 148° |
| 2026-04-21 16:11 | 55.96474 | -2.99370 | 6012 ft | 265 kts | 171° |
| 2026-04-21 16:11 | 55.94633 | -2.99764 | 6007 ft | 273 kts | 198° |
| 2026-04-21 16:11 | 55.92876 | -3.01128 | 6007 ft | 276 kts | 201° |
| 2026-04-21 16:11 | 55.91127 | -3.02534 | 6008 ft | 275 kts | 201° |
| 2026-04-21 16:12 | 55.89385 | -3.03942 | 6008 ft | 276 kts | 201° |
| 2026-04-21 16:12 | 55.87637 | -3.05355 | 6005 ft | 275 kts | 200° |
| 2026-04-21 16:12 | 55.85889 | -3.06762 | 6008 ft | 275 kts | 201° |
| 2026-04-21 16:12 | 55.84143 | -3.08163 | 6009 ft | 275 kts | 200° |
| 2026-04-21 16:13 | 55.82397 | -3.09563 | 6007 ft | 275 kts | 200° |
| 2026-04-21 16:13 | 55.80628 | -3.10981 | 6000 ft | 275 kts | 200° |
| 2026-04-21 16:13 | 55.78885 | -3.12378 | 6001 ft | 275 kts | 200° |
| 2026-04-21 16:13 | 55.77143 | -3.13773 | 6001 ft | 275 kts | 200° |
| 2026-04-21 16:14 | 55.75398 | -3.15164 | 5998 ft | 275 kts | 200° |
| 2026-04-21 16:14 | 55.73651 | -3.16546 | 5995 ft | 275 kts | 200° |
| 2026-04-21 16:14 | 55.71906 | -3.17923 | 5997 ft | 273 kts | 200° |
| 2026-04-21 16:14 | 55.70167 | -3.19297 | 5991 ft | 275 kts | 200° |
| 2026-04-21 16:15 | 55.68425 | -3.20679 | 5985 ft | 275 kts | 200° |
| 2026-04-21 16:15 | 55.66682 | -3.22061 | 5991 ft | 275 kts | 200° |
| 2026-04-21 16:15 | 55.64937 | -3.23441 | 5987 ft | 274 kts | 200° |
| 2026-04-21 16:15 | 55.63193 | -3.24816 | 5985 ft | 275 kts | 200° |
| 2026-04-21 16:16 | 55.61443 | -3.26196 | 5983 ft | 275 kts | 200° |
| 2026-04-21 16:16 | 55.59698 | -3.27573 | 5980 ft | 274 kts | 200° |
| 2026-04-21 16:16 | 55.57953 | -3.28949 | 5964 ft | 275 kts | 200° |
| 2026-04-21 16:16 | 55.56207 | -3.30322 | 5977 ft | 274 kts | 200° |
| 2026-04-21 16:17 | 55.54453 | -3.31626 | 5959 ft | 272 kts | 192° |
| 2026-04-21 16:17 | 55.52613 | -3.31947 | 5966 ft | 263 kts | 168° |
| 2026-04-21 16:17 | 55.50900 | -3.30979 | 5967 ft | 257 kts | 146° |
| 2026-04-21 16:17 | 55.49569 | -3.28917 | 6391 ft | 256 kts | 124° |
| 2026-04-21 16:18 | 55.48759 | -3.26158 | 7159 ft | 255 kts | 105° |
| 2026-04-21 16:18 | 55.48339 | -3.23114 | 7822 ft | 257 kts | 102° |
| 2026-04-21 16:18 | 55.47937 | -3.20026 | 8508 ft | 260 kts | 102° |
| 2026-04-21 16:18 | 55.47534 | -3.16903 | 9187 ft | 262 kts | 102° |
| 2026-04-21 16:19 | 55.47125 | -3.13750 | 9865 ft | 265 kts | 103° |
| 2026-04-21 16:19 | 55.46709 | -3.10568 | 10528 ft | 268 kts | 103° |
| 2026-04-21 16:19 | 55.46279 | -3.07291 | 10817 ft | 284 kts | 103° |
| 2026-04-21 16:19 | 55.45819 | -3.03780 | 10948 ft | 304 kts | 103° |
| 2026-04-21 16:20 | 55.45329 | -3.00041 | 11076 ft | 322 kts | 103° |
| 2026-04-21 16:20 | 55.44808 | -2.96093 | 11259 ft | 338 kts | 103° |
| 2026-04-21 16:20 | 55.44268 | -2.92027 | 11721 ft | 343 kts | 103° |
| 2026-04-21 16:20 | 55.43721 | -2.87911 | 12274 ft | 346 kts | 103° |
| 2026-04-21 16:21 | 55.43170 | -2.83763 | 12828 ft | 349 kts | 102° |
| 2026-04-21 16:21 | 55.42612 | -2.79577 | 13393 ft | 353 kts | 103° |
| 2026-04-21 16:21 | 55.42048 | -2.75365 | 13964 ft | 355 kts | 103° |
| 2026-04-21 16:21 | 55.41478 | -2.71121 | 14478 ft | 358 kts | 103° |
| 2026-04-21 16:22 | 55.40901 | -2.66834 | 14969 ft | 361 kts | 103° |
| 2026-04-21 16:22 | 55.40320 | -2.62518 | 15462 ft | 364 kts | 103° |
| 2026-04-21 16:22 | 55.39732 | -2.58176 | 15963 ft | 366 kts | 103° |
| 2026-04-21 16:22 | 55.39135 | -2.53794 | 16436 ft | 370 kts | 103° |
| 2026-04-21 16:23 | 55.38531 | -2.49387 | 16924 ft | 372 kts | 103° |
| 2026-04-21 16:23 | 55.37923 | -2.44947 | 17398 ft | 375 kts | 103° |
| 2026-04-21 16:23 | 55.37313 | -2.40473 | 17854 ft | 378 kts | 103° |
| 2026-04-21 16:23 | 55.36697 | -2.35963 | 18292 ft | 381 kts | 103° |
| 2026-04-21 16:24 | 55.36075 | -2.31425 | 18745 ft | 383 kts | 103° |
| 2026-04-21 16:24 | 55.35445 | -2.26859 | 19147 ft | 386 kts | 103° |
| 2026-04-21 16:24 | 55.34807 | -2.22266 | 19537 ft | 388 kts | 103° |
| 2026-04-21 16:24 | 55.34163 | -2.17650 | 19933 ft | 390 kts | 103° |
| 2026-04-21 16:25 | 55.33513 | -2.13006 | 20329 ft | 393 kts | 103° |
| 2026-04-21 16:25 | 55.32858 | -2.08346 | 20727 ft | 395 kts | 103° |
| 2026-04-21 16:25 | 55.32197 | -2.03650 | 21126 ft | 397 kts | 103° |
| 2026-04-21 16:25 | 55.31532 | -1.98935 | 21518 ft | 400 kts | 104° |
| 2026-04-21 16:26 | 55.30858 | -1.94178 | 21923 ft | 402 kts | 104° |
| 2026-04-21 16:26 | 55.30180 | -1.89405 | 22299 ft | 404 kts | 104° |
| 2026-04-21 16:26 | 55.29497 | -1.84603 | 22703 ft | 406 kts | 104° |
| 2026-04-21 16:26 | 55.28810 | -1.79780 | 23087 ft | 409 kts | 104° |
| 2026-04-21 16:27 | 55.28118 | -1.74932 | 23446 ft | 411 kts | 104° |
| 2026-04-21 16:27 | 55.27420 | -1.70050 | 23804 ft | 413 kts | 104° |
| 2026-04-21 16:27 | 55.26715 | -1.65149 | 24152 ft | 416 kts | 104° |
| 2026-04-21 16:27 | 55.26002 | -1.60217 | 24449 ft | 418 kts | 104° |
| 2026-04-21 16:28 | 55.25284 | -1.55262 | 24758 ft | 420 kts | 104° |
| 2026-04-21 16:28 | 55.24563 | -1.50289 | 25037 ft | 422 kts | 104° |
| 2026-04-21 16:28 | 55.23835 | -1.45284 | 25328 ft | 425 kts | 104° |
| 2026-04-21 16:28 | 55.23101 | -1.40267 | 25615 ft | 427 kts | 104° |
| 2026-04-21 16:29 | 55.22610 | -1.36925 | 25805 ft | 428 kts | 104° |
| 2026-04-21 16:29 | 55.21612 | -1.30147 | 26181 ft | 431 kts | 104° |
| 2026-04-21 16:29 | 55.20857 | -1.25046 | 26462 ft | 433 kts | 104° |
| 2026-04-21 16:29 | 55.20099 | -1.19929 | 26726 ft | 435 kts | 104° |
| 2026-04-21 16:30 | 55.19336 | -1.14788 | 26999 ft | 437 kts | 104° |
| 2026-04-21 16:30 | 55.18571 | -1.09625 | 27264 ft | 439 kts | 104° |
| 2026-04-21 16:30 | 55.17800 | -1.04445 | 27518 ft | 441 kts | 105° |
| 2026-04-21 16:30 | 55.17018 | -0.99247 | 27759 ft | 443 kts | 105° |
| 2026-04-21 16:31 | 55.16228 | -0.94031 | 28004 ft | 444 kts | 105° |
| 2026-04-21 16:31 | 55.15433 | -0.88797 | 28217 ft | 446 kts | 105° |
| 2026-04-21 16:31 | 55.14636 | -0.83548 | 28450 ft | 447 kts | 105° |
| 2026-04-21 16:31 | 55.13837 | -0.78301 | 28768 ft | 446 kts | 105° |
| 2026-04-21 16:32 | 55.13041 | -0.73060 | 29078 ft | 445 kts | 105° |
| 2026-04-21 16:32 | 55.12246 | -0.67836 | 29383 ft | 445 kts | 105° |
| 2026-04-21 16:32 | 55.11449 | -0.62624 | 29693 ft | 444 kts | 105° |
| 2026-04-21 16:32 | 55.10649 | -0.57417 | 30001 ft | 444 kts | 105° |
| 2026-04-21 16:33 | 55.09845 | -0.52212 | 30285 ft | 443 kts | 105° |
| 2026-04-21 16:33 | 55.09041 | -0.47023 | 30573 ft | 443 kts | 105° |
| 2026-04-21 16:33 | 55.08233 | -0.41834 | 30823 ft | 443 kts | 105° |
| 2026-04-21 16:33 | 55.07422 | -0.36650 | 31031 ft | 443 kts | 105° |
| 2026-04-21 16:34 | 55.06608 | -0.31472 | 31236 ft | 443 kts | 105° |
| 2026-04-21 16:34 | 55.06066 | -0.28041 | 31380 ft | 443 kts | 105° |
| 2026-04-21 16:34 | 55.05249 | -0.22857 | 31583 ft | 444 kts | 105° |
| 2026-04-21 16:34 | 55.04433 | -0.17673 | 31774 ft | 444 kts | 105° |
| 2026-04-21 16:35 | 55.03611 | -0.12477 | 31963 ft | 445 kts | 105° |
| 2026-04-21 16:35 | 55.02786 | -0.07282 | 32150 ft | 445 kts | 105° |
| 2026-04-21 16:35 | 55.01958 | -0.02076 | 32342 ft | 446 kts | 105° |
| 2026-04-21 16:35 | 55.01129 | 0.03128 | 32528 ft | 446 kts | 105° |
| 2026-04-21 16:36 | 55.00298 | 0.08344 | 32694 ft | 447 kts | 105° |
| 2026-04-21 16:36 | 54.99463 | 0.13560 | 32874 ft | 448 kts | 105° |
| 2026-04-21 16:36 | 54.98625 | 0.18785 | 33052 ft | 448 kts | 105° |
| 2026-04-21 16:36 | 54.97783 | 0.24011 | 33224 ft | 449 kts | 105° |
| 2026-04-21 16:37 | 54.96935 | 0.29247 | 33382 ft | 449 kts | 105° |
| 2026-04-21 16:37 | 54.96082 | 0.34484 | 33548 ft | 450 kts | 105° |
| 2026-04-21 16:37 | 54.95224 | 0.39722 | 33718 ft | 451 kts | 105° |
| 2026-04-21 16:37 | 54.94361 | 0.44965 | 33857 ft | 452 kts | 105° |
| 2026-04-21 16:38 | 54.93496 | 0.50208 | 33995 ft | 453 kts | 105° |
| 2026-04-21 16:38 | 54.92625 | 0.55478 | 34135 ft | 453 kts | 105° |
| 2026-04-21 16:38 | 54.91754 | 0.60749 | 34277 ft | 454 kts | 105° |
| 2026-04-21 16:38 | 54.90878 | 0.66033 | 34414 ft | 455 kts | 105° |
| 2026-04-21 16:39 | 54.90000 | 0.71310 | 34534 ft | 455 kts | 105° |
| 2026-04-21 16:39 | 54.89121 | 0.76607 | 34651 ft | 456 kts | 105° |
| 2026-04-21 16:39 | 54.88238 | 0.81897 | 34773 ft | 456 kts | 105° |
| 2026-04-21 16:39 | 54.87349 | 0.87187 | 34885 ft | 457 kts | 105° |
| 2026-04-21 16:40 | 54.86458 | 0.92483 | 35000 ft | 457 kts | 105° |
| 2026-04-21 16:40 | 54.85566 | 0.97769 | 35116 ft | 457 kts | 105° |
| 2026-04-21 16:40 | 54.84668 | 1.03061 | 35238 ft | 457 kts | 105° |
| 2026-04-21 16:40 | 54.83767 | 1.08348 | 35380 ft | 456 kts | 105° |
| 2026-04-21 16:41 | 54.82864 | 1.13627 | 35466 ft | 457 kts | 106° |
| 2026-04-21 16:41 | 54.81036 | 1.24326 | 35470 ft | 462 kts | 105° |
| 2026-04-21 16:42 | 54.79205 | 1.35001 | 35466 ft | 462 kts | 106° |
| 2026-04-21 16:42 | 54.77368 | 1.45662 | 35468 ft | 462 kts | 106° |
| 2026-04-21 16:43 | 54.75525 | 1.56244 | 35461 ft | 461 kts | 106° |
| 2026-04-21 16:43 | 54.73647 | 1.66945 | 35474 ft | 462 kts | 106° |
| 2026-04-21 16:44 | 54.71785 | 1.77506 | 35481 ft | 462 kts | 106° |
| 2026-04-21 16:44 | 54.69900 | 1.88135 | 35485 ft | 462 kts | 106° |
| 2026-04-21 16:45 | 54.67995 | 1.98831 | 35484 ft | 462 kts | 106° |
| 2026-04-21 16:45 | 54.66096 | 2.09437 | 35483 ft | 462 kts | 107° |
| 2026-04-21 16:46 | 54.64201 | 2.19960 | 35484 ft | 462 kts | 107° |
| 2026-04-21 16:46 | 54.62266 | 2.30606 | 35488 ft | 462 kts | 107° |
| 2026-04-21 16:47 | 54.60340 | 2.41175 | 35482 ft | 461 kts | 107° |
| 2026-04-21 16:47 | 54.58409 | 2.51717 | 35476 ft | 461 kts | 107° |
| 2026-04-21 16:48 | 54.56467 | 2.62245 | 35474 ft | 461 kts | 107° |
| 2026-04-21 16:48 | 54.54513 | 2.72754 | 35473 ft | 460 kts | 107° |
| 2026-04-21 16:49 | 54.52558 | 2.83242 | 35467 ft | 460 kts | 107° |
| 2026-04-21 16:49 | 54.50594 | 2.93725 | 35464 ft | 460 kts | 107° |
| 2026-04-21 16:50 | 54.48616 | 3.04210 | 35469 ft | 460 kts | 107° |
| 2026-04-21 16:50 | 54.46637 | 3.14646 | 35467 ft | 460 kts | 108° |
| 2026-04-21 16:51 | 54.44645 | 3.25096 | 35459 ft | 460 kts | 108° |
| 2026-04-21 16:51 | 54.42642 | 3.35537 | 35458 ft | 460 kts | 108° |
| 2026-04-21 16:52 | 54.40629 | 3.45956 | 35460 ft | 460 kts | 108° |
| 2026-04-21 16:52 | 54.38606 | 3.56361 | 35458 ft | 460 kts | 108° |
| 2026-04-21 16:53 | 54.36575 | 3.66762 | 35457 ft | 460 kts | 108° |
| 2026-04-21 16:53 | 54.34536 | 3.77156 | 35452 ft | 460 kts | 108° |
| 2026-04-21 16:54 | 54.32493 | 3.87537 | 35450 ft | 460 kts | 108° |
| 2026-04-21 16:54 | 54.30444 | 3.97912 | 35455 ft | 460 kts | 108° |
| 2026-04-21 16:55 | 54.28386 | 4.08274 | 35445 ft | 460 kts | 108° |
| 2026-04-21 16:55 | 54.26307 | 4.18611 | 35446 ft | 460 kts | 108° |
| 2026-04-21 16:56 | 54.24379 | 4.29023 | 35444 ft | 459 kts | 100° |
| 2026-04-21 16:56 | 54.23944 | 4.39860 | 35443 ft | 458 kts | 90° |
| 2026-04-21 16:57 | 54.23865 | 4.50733 | 35441 ft | 458 kts | 90° |
| 2026-04-21 16:57 | 54.23751 | 4.61614 | 35444 ft | 458 kts | 91° |
| 2026-04-21 16:58 | 54.23622 | 4.72492 | 35441 ft | 457 kts | 91° |
| 2026-04-21 16:58 | 54.23503 | 4.83361 | 35439 ft | 457 kts | 91° |
| 2026-04-21 16:59 | 54.23382 | 4.94218 | 35436 ft | 457 kts | 91° |
| 2026-04-21 16:59 | 54.23239 | 5.05074 | 35437 ft | 457 kts | 91° |
| 2026-04-21 17:00 | 54.23083 | 5.15922 | 35434 ft | 457 kts | 91° |
| 2026-04-21 17:00 | 54.22945 | 5.24949 | 35438 ft | 456 kts | 91° |
| 2026-04-21 17:01 | 54.22750 | 5.37623 | 35434 ft | 456 kts | 91° |
| 2026-04-21 17:01 | 54.22581 | 5.48465 | 35430 ft | 456 kts | 91° |
| 2026-04-21 17:02 | 54.22390 | 5.59268 | 35398 ft | 450 kts | 91° |
| 2026-04-21 17:02 | 54.22187 | 5.69896 | 35402 ft | 446 kts | 91° |
| 2026-04-21 17:03 | 54.21982 | 5.80489 | 35400 ft | 446 kts | 91° |
| 2026-04-21 17:03 | 54.21769 | 5.91058 | 35403 ft | 445 kts | 92° |
| 2026-04-21 17:04 | 54.21540 | 6.01622 | 35397 ft | 444 kts | 92° |
| 2026-04-21 17:04 | 54.21303 | 6.12160 | 35396 ft | 443 kts | 92° |
| 2026-04-21 17:05 | 54.21057 | 6.22681 | 35393 ft | 443 kts | 92° |
| 2026-04-21 17:05 | 54.20802 | 6.33172 | 35389 ft | 442 kts | 92° |
| 2026-04-21 17:06 | 54.20539 | 6.43654 | 35401 ft | 442 kts | 92° |
| 2026-04-21 17:06 | 54.20271 | 6.54141 | 35406 ft | 442 kts | 92° |
| 2026-04-21 17:07 | 54.20046 | 6.62853 | 35412 ft | 442 kts | 92° |
| 2026-04-21 17:07 | 54.19722 | 6.75097 | 35409 ft | 441 kts | 92° |
| 2026-04-21 17:08 | 54.19440 | 6.85561 | 35410 ft | 441 kts | 92° |
| 2026-04-21 17:08 | 54.19137 | 6.96005 | 35233 ft | 439 kts | 92° |
| 2026-04-21 17:08 | 54.18981 | 7.01203 | 34971 ft | 437 kts | 92° |
| 2026-04-21 17:09 | 54.18666 | 7.11537 | 34417 ft | 434 kts | 92° |
| 2026-04-21 17:09 | 54.18506 | 7.16672 | 34082 ft | 433 kts | 92° |
| 2026-04-21 17:09 | 54.18345 | 7.21810 | 33746 ft | 433 kts | 92° |
| 2026-04-21 17:10 | 54.18181 | 7.26935 | 33405 ft | 433 kts | 92° |
| 2026-04-21 17:10 | 54.18015 | 7.32047 | 33090 ft | 433 kts | 92° |
| 2026-04-21 17:10 | 54.17848 | 7.37182 | 32759 ft | 432 kts | 92° |
| 2026-04-21 17:10 | 54.17680 | 7.42306 | 32442 ft | 432 kts | 92° |
| 2026-04-21 17:11 | 54.17510 | 7.47425 | 32129 ft | 432 kts | 92° |
| 2026-04-21 17:11 | 54.17336 | 7.52547 | 31812 ft | 432 kts | 92° |
| 2026-04-21 17:11 | 54.17159 | 7.57646 | 31498 ft | 428 kts | 92° |
| 2026-04-21 17:11 | 54.16981 | 7.62655 | 31193 ft | 419 kts | 92° |
| 2026-04-21 17:12 | 54.16805 | 7.67615 | 30896 ft | 420 kts | 92° |
| 2026-04-21 17:12 | 54.16628 | 7.72604 | 30597 ft | 422 kts | 92° |
| 2026-04-21 17:12 | 54.16508 | 7.75923 | 30389 ft | 426 kts | 92° |
| 2026-04-21 17:12 | 54.16320 | 7.81007 | 29980 ft | 431 kts | 92° |
| 2026-04-21 17:13 | 54.16123 | 7.86104 | 29572 ft | 430 kts | 94° |
| 2026-04-21 17:13 | 54.15635 | 7.91129 | 29171 ft | 430 kts | 103° |
| 2026-04-21 17:13 | 54.14694 | 7.95956 | 28779 ft | 429 kts | 111° |
| 2026-04-21 17:13 | 54.13412 | 8.00553 | 28330 ft | 428 kts | 114° |
| 2026-04-21 17:14 | 54.12111 | 8.05091 | 27758 ft | 425 kts | 114° |
| 2026-04-21 17:14 | 54.10819 | 8.09607 | 27182 ft | 421 kts | 114° |
| 2026-04-21 17:14 | 54.09539 | 8.14079 | 26591 ft | 418 kts | 114° |
| 2026-04-21 17:14 | 54.08267 | 8.18522 | 26027 ft | 418 kts | 114° |
| 2026-04-21 17:15 | 54.06991 | 8.22970 | 25470 ft | 417 kts | 114° |
| 2026-04-21 17:15 | 54.05721 | 8.27389 | 24868 ft | 415 kts | 114° |
| 2026-04-21 17:15 | 54.04457 | 8.31779 | 24288 ft | 412 kts | 114° |
| 2026-04-21 17:15 | 54.03200 | 8.36150 | 23645 ft | 409 kts | 114° |
| 2026-04-21 17:16 | 54.01952 | 8.40474 | 22958 ft | 405 kts | 114° |
| 2026-04-21 17:16 | 54.00712 | 8.44753 | 22347 ft | 401 kts | 114° |
| 2026-04-21 17:16 | 53.99481 | 8.48986 | 21757 ft | 397 kts | 114° |
| 2026-04-21 17:16 | 53.98261 | 8.53172 | 21226 ft | 394 kts | 114° |
| 2026-04-21 17:17 | 53.97051 | 8.57323 | 20708 ft | 391 kts | 114° |
| 2026-04-21 17:17 | 53.95852 | 8.61441 | 20201 ft | 387 kts | 114° |
| 2026-04-21 17:17 | 53.94665 | 8.65525 | 19729 ft | 382 kts | 114° |
| 2026-04-21 17:17 | 53.93496 | 8.69533 | 19284 ft | 377 kts | 114° |
| 2026-04-21 17:18 | 53.92337 | 8.73499 | 18853 ft | 374 kts | 114° |
| 2026-04-21 17:18 | 53.91182 | 8.77432 | 18375 ft | 371 kts | 114° |
| 2026-04-21 17:18 | 53.90038 | 8.81329 | 17885 ft | 368 kts | 114° |
| 2026-04-21 17:18 | 53.88902 | 8.85195 | 17401 ft | 365 kts | 114° |
| 2026-04-21 17:19 | 53.87771 | 8.89028 | 16921 ft | 362 kts | 114° |
| 2026-04-21 17:19 | 53.86646 | 8.92826 | 16453 ft | 359 kts | 114° |
| 2026-04-21 17:19 | 53.85529 | 8.96587 | 15982 ft | 356 kts | 114° |
| 2026-04-21 17:19 | 53.84419 | 9.00325 | 15531 ft | 354 kts | 114° |
| 2026-04-21 17:20 | 53.83097 | 9.03823 | 15068 ft | 354 kts | 128° |
| 2026-04-21 17:20 | 53.81456 | 9.06922 | 14589 ft | 353 kts | 129° |
| 2026-04-21 17:20 | 53.79816 | 9.09983 | 14020 ft | 345 kts | 129° |
| 2026-04-21 17:20 | 53.78223 | 9.12927 | 13426 ft | 333 kts | 129° |
| 2026-04-21 17:21 | 53.76681 | 9.15768 | 12838 ft | 323 kts | 129° |
| 2026-04-21 17:21 | 53.75184 | 9.18528 | 12260 ft | 314 kts | 129° |
| 2026-04-21 17:21 | 53.73709 | 9.21250 | 11634 ft | 307 kts | 129° |
| 2026-04-21 17:21 | 53.72278 | 9.23890 | 11027 ft | 302 kts | 129° |
| 2026-04-21 17:22 | 53.70875 | 9.26485 | 10434 ft | 294 kts | 129° |
| 2026-04-21 17:22 | 53.69534 | 9.28960 | 9981 ft | 278 kts | 129° |
| 2026-04-21 17:22 | 53.68242 | 9.31346 | 9548 ft | 273 kts | 129° |
| 2026-04-21 17:22 | 53.66965 | 9.33700 | 9123 ft | 272 kts | 129° |
| 2026-04-21 17:23 | 53.65685 | 9.36052 | 8714 ft | 272 kts | 129° |
| 2026-04-21 17:23 | 53.64415 | 9.38374 | 8291 ft | 268 kts | 129° |
| 2026-04-21 17:23 | 53.63192 | 9.40611 | 7869 ft | 266 kts | 129° |
| 2026-04-21 17:23 | 53.61918 | 9.42944 | 7469 ft | 265 kts | 129° |
| 2026-04-21 17:24 | 53.60676 | 9.45220 | 7071 ft | 263 kts | 129° |
| 2026-04-21 17:24 | 53.59438 | 9.47489 | 6679 ft | 264 kts | 129° |
| 2026-04-21 17:24 | 53.58200 | 9.49767 | 6251 ft | 263 kts | 129° |
| 2026-04-21 17:24 | 53.56976 | 9.52016 | 5827 ft | 258 kts | 129° |
| 2026-04-21 17:25 | 53.55768 | 9.54231 | 5416 ft | 256 kts | 129° |
| 2026-04-21 17:25 | 53.54564 | 9.56426 | 5002 ft | 255 kts | 132° |
| 2026-04-21 17:25 | 53.53181 | 9.58227 | 4570 ft | 247 kts | 143° |
| 2026-04-21 17:25 | 53.51768 | 9.59746 | 4154 ft | 237 kts | 144° |
| 2026-04-21 17:26 | 53.50524 | 9.61425 | 3751 ft | 222 kts | 121° |
| 2026-04-21 17:26 | 53.50034 | 9.63750 | 3479 ft | 210 kts | 91° |
| 2026-04-21 17:26 | 53.50060 | 9.66190 | 3213 ft | 209 kts | 85° |
| 2026-04-21 17:26 | 53.50167 | 9.68584 | 3044 ft | 199 kts | 84° |
| 2026-04-21 17:27 | 53.50275 | 9.70847 | 3005 ft | 191 kts | 84° |
| 2026-04-21 17:27 | 53.50476 | 9.73035 | 3007 ft | 189 kts | 70° |
| 2026-04-21 17:27 | 53.51144 | 9.74896 | 3003 ft | 181 kts | 51° |
| 2026-04-21 17:27 | 53.51936 | 9.76474 | 2999 ft | 173 kts | 52° |
| 2026-04-21 17:28 | 53.52695 | 9.77993 | 2975 ft | 165 kts | 52° |
| 2026-04-21 17:28 | 53.53420 | 9.79447 | 2824 ft | 160 kts | 52° |
| 2026-04-21 17:28 | 53.54127 | 9.80867 | 2615 ft | 157 kts | 52° |
| 2026-04-21 17:28 | 53.54827 | 9.82274 | 2403 ft | 156 kts | 52° |
| 2026-04-21 17:29 | 53.55522 | 9.83671 | 2206 ft | 156 kts | 52° |
| 2026-04-21 17:29 | 53.56209 | 9.85051 | 1984 ft | 153 kts | 52° |
| 2026-04-21 17:29 | 53.56893 | 9.86427 | 1766 ft | 153 kts | 51° |
| 2026-04-21 17:29 | 53.57577 | 9.87803 | 1547 ft | 153 kts | 52° |
| 2026-04-21 17:30 | 53.58244 | 9.89147 | 1350 ft | 145 kts | 51° |
| 2026-04-21 17:30 | 53.58878 | 9.90425 | 1135 ft | 140 kts | 50° |
| 2026-04-21 17:30 | 53.59503 | 9.91689 | 886 ft | 140 kts | 50° |
| 2026-04-21 17:30 | 53.60126 | 9.92940 | 696 ft | 139 kts | 49° |
| 2026-04-21 17:31 | 53.60755 | 9.94208 | 480 ft | 142 kts | 50° |
| 2026-04-21 17:31 | 53.61384 | 9.95468 | 289 ft | 140 kts | 49° |
| 2026-04-21 17:31 | 53.62004 | 9.96735 | 83 ft | 139 kts | 50° |
| 2026-04-21 17:31 | 53.62587 | 9.97905 | 41 ft | 115 kts | 50° |
| 2026-04-21 17:32 | 53.62887 | 9.98516 | 44 ft | 91 kts | 51° |
| 2026-04-21 17:32 | 53.63230 | 9.99207 | 47 ft | 17 kts | 52° |
| 2026-04-21 17:32 | 53.63277 | 9.99341 | 44 ft | 14 kts | 70° |
| 2026-04-21 17:32 | 53.63291 | 9.99508 | 47 ft | 15 kts | 89° |
| 2026-04-21 17:33 | 53.63275 | 9.99675 | 48 ft | 15 kts | 101° |
| 2026-04-21 17:33 | 53.63310 | 9.99826 | 48 ft | 15 kts | 48° |
| 2026-04-21 17:33 | 53.63378 | 9.99962 | 48 ft | 15 kts | 50° |
| 2026-04-21 17:33 | 53.63433 | 10.00109 | 48 ft | 14 kts | 97° |
| 2026-04-21 17:34 | 53.63365 | 10.00228 | 48 ft | 15 kts | 165° |
| 2026-04-21 17:34 | 53.63258 | 10.00241 | 48 ft | 16 kts | 176° |
| 2026-04-21 17:34 | 53.63203 | 10.00301 | 48 ft | 9 kts | 84° |
| 2026-04-21 17:34 | 53.63206 | 10.00357 | 48 ft | 0 kts | 85° |